sensor_id;sensor_type;location;lat;lon;timestamp;temperature;humidity
7366;DHT22;3723;52.220;8.792;2023-07-20T00:00:11;14.00;99.90
7366;DHT22;3723;52.220;8.792;2023-07-20T00:02:39;14.10;99.90
7366;DHT22;3723;52.220;8.792;2023-07-20T00:05:06;14.20;99.90
7366;DHT22;3723;52.220;8.792;2023-07-20T00:07:33;14.20;99.90
7366;DHT22;3723;52.220;8.792;2023-07-20T00:10:00;14.20;99.90
7366;DHT22;3723;52.220;8.792;2023-07-20T00:12:27;14.10;99.90
7366;DHT22;3723;52.220;8.792;2023-07-20T00:14:54;14.00;99.90
7366;DHT22;3723;52.220;8.792;2023-07-20T00:17:22;14.00;99.90
7366;DHT22;3723;52.220;8.792;2023-07-20T00:19:49;13.90;99.90
7366;DHT22;3723;52.220;8.792;2023-07-20T00:22:16;13.80;99.90
7366;DHT22;3723;52.220;8.792;2023-07-20T00:24:43;13.90;99.90
7366;DHT22;3723;52.220;8.792;2023-07-20T00:27:09;13.90;99.90
7366;DHT22;3723;52.220;8.792;2023-07-20T00:29:36;13.90;99.90
7366;DHT22;3723;52.220;8.792;2023-07-20T00:32:04;13.90;99.90
7366;DHT22;3723;52.220;8.792;2023-07-20T00:34:33;13.90;99.90
7366;DHT22;3723;52.220;8.792;2023-07-20T00:36:59;13.90;99.90
7366;DHT22;3723;52.220;8.792;2023-07-20T00:39:26;13.90;99.90
7366;DHT22;3723;52.220;8.792;2023-07-20T00:41:53;13.90;99.90
7366;DHT22;3723;52.220;8.792;2023-07-20T00:44:20;14.00;99.90
7366;DHT22;3723;52.220;8.792;2023-07-20T00:46:47;14.00;99.90
7366;DHT22;3723;52.220;8.792;2023-07-20T00:49:15;14.00;99.90
7366;DHT22;3723;52.220;8.792;2023-07-20T00:51:43;14.00;99.90
7366;DHT22;3723;52.220;8.792;2023-07-20T00:54:11;14.00;99.90
7366;DHT22;3723;52.220;8.792;2023-07-20T00:56:37;14.00;99.90
7366;DHT22;3723;52.220;8.792;2023-07-20T00:59:05;14.10;99.90
7366;DHT22;3723;52.220;8.792;2023-07-20T01:01:32;14.00;99.90
7366;DHT22;3723;52.220;8.792;2023-07-20T01:03:59;14.00;99.90
7366;DHT22;3723;52.220;8.792;2023-07-20T01:06:30;14.10;99.90
7366;DHT22;3723;52.220;8.792;2023-07-20T01:09:08;14.10;99.90
7366;DHT22;3723;52.220;8.792;2023-07-20T01:11:43;14.10;99.90
7366;DHT22;3723;52.220;8.792;2023-07-20T01:14:14;14.10;99.90
7366;DHT22;3723;52.220;8.792;2023-07-20T01:16:42;14.10;99.90
7366;DHT22;3723;52.220;8.792;2023-07-20T01:19:09;14.10;99.90
7366;DHT22;3723;52.220;8.792;2023-07-20T01:21:40;14.10;99.90
7366;DHT22;3723;52.220;8.792;2023-07-20T01:24:31;14.10;99.90
7366;DHT22;3723;52.220;8.792;2023-07-20T01:27:25;14.10;99.90
7366;DHT22;3723;52.220;8.792;2023-07-20T01:30:08;14.10;99.90
7366;DHT22;3723;52.220;8.792;2023-07-20T01:32:42;14.10;99.90
7366;DHT22;3723;52.220;8.792;2023-07-20T01:35:10;14.10;99.90
7366;DHT22;3723;52.220;8.792;2023-07-20T01:37:41;14.10;99.90
7366;DHT22;3723;52.220;8.792;2023-07-20T01:40:12;14.10;99.90
7366;DHT22;3723;52.220;8.792;2023-07-20T01:42:43;14.00;99.90
7366;DHT22;3723;52.220;8.792;2023-07-20T01:45:10;14.00;99.90
7366;DHT22;3723;52.220;8.792;2023-07-20T01:47:37;14.00;99.90
7366;DHT22;3723;52.220;8.792;2023-07-20T01:50:07;14.00;99.90
7366;DHT22;3723;52.220;8.792;2023-07-20T01:52:34;14.00;99.90
7366;DHT22;3723;52.220;8.792;2023-07-20T01:55:01;14.00;99.90
7366;DHT22;3723;52.220;8.792;2023-07-20T01:57:29;13.90;99.90
7366;DHT22;3723;52.220;8.792;2023-07-20T01:59:55;14.00;99.90
7366;DHT22;3723;52.220;8.792;2023-07-20T02:02:26;13.90;99.90
7366;DHT22;3723;52.220;8.792;2023-07-20T02:04:53;13.90;99.90
7366;DHT22;3723;52.220;8.792;2023-07-20T02:07:21;13.90;99.90
7366;DHT22;3723;52.220;8.792;2023-07-20T02:09:48;13.90;99.90
7366;DHT22;3723;52.220;8.792;2023-07-20T02:12:15;13.90;99.90
7366;DHT22;3723;52.220;8.792;2023-07-20T02:14:42;13.90;99.90
7366;DHT22;3723;52.220;8.792;2023-07-20T02:17:09;13.90;99.90
7366;DHT22;3723;52.220;8.792;2023-07-20T02:19:37;13.90;99.90
7366;DHT22;3723;52.220;8.792;2023-07-20T02:22:04;14.00;99.90
7366;DHT22;3723;52.220;8.792;2023-07-20T02:24:33;14.00;99.90
7366;DHT22;3723;52.220;8.792;2023-07-20T02:27:00;14.00;99.90
7366;DHT22;3723;52.220;8.792;2023-07-20T02:29:27;14.00;99.90
7366;DHT22;3723;52.220;8.792;2023-07-20T02:31:54;14.00;99.90
7366;DHT22;3723;52.220;8.792;2023-07-20T02:34:21;14.00;99.90
7366;DHT22;3723;52.220;8.792;2023-07-20T02:36:48;14.00;99.90
7366;DHT22;3723;52.220;8.792;2023-07-20T02:39:14;14.10;99.90
7366;DHT22;3723;52.220;8.792;2023-07-20T02:41:43;14.20;99.90
7366;DHT22;3723;52.220;8.792;2023-07-20T02:44:10;14.20;99.90
7366;DHT22;3723;52.220;8.792;2023-07-20T02:46:37;14.20;99.90
7366;DHT22;3723;52.220;8.792;2023-07-20T02:49:04;14.20;99.90
7366;DHT22;3723;52.220;8.792;2023-07-20T02:51:31;14.20;99.90
7366;DHT22;3723;52.220;8.792;2023-07-20T02:53:58;14.10;99.90
7366;DHT22;3723;52.220;8.792;2023-07-20T02:56:26;14.20;99.90
7366;DHT22;3723;52.220;8.792;2023-07-20T02:58:54;14.10;99.90
7366;DHT22;3723;52.220;8.792;2023-07-20T03:01:21;14.10;99.90
7366;DHT22;3723;52.220;8.792;2023-07-20T03:03:48;14.00;99.90
7366;DHT22;3723;52.220;8.792;2023-07-20T03:06:16;14.00;99.90
7366;DHT22;3723;52.220;8.792;2023-07-20T03:08:43;13.90;99.90
7366;DHT22;3723;52.220;8.792;2023-07-20T03:11:13;13.90;99.90
7366;DHT22;3723;52.220;8.792;2023-07-20T03:13:40;13.80;99.90
7366;DHT22;3723;52.220;8.792;2023-07-20T03:16:10;13.80;99.90
7366;DHT22;3723;52.220;8.792;2023-07-20T03:18:37;13.70;99.90
7366;DHT22;3723;52.220;8.792;2023-07-20T03:21:05;13.70;99.90
7366;DHT22;3723;52.220;8.792;2023-07-20T03:23:32;13.60;99.90
7366;DHT22;3723;52.220;8.792;2023-07-20T03:25:59;13.60;99.90
7366;DHT22;3723;52.220;8.792;2023-07-20T03:28:26;13.60;99.90
7366;DHT22;3723;52.220;8.792;2023-07-20T03:30:53;13.60;99.90
7366;DHT22;3723;52.220;8.792;2023-07-20T03:33:24;13.50;99.90
7366;DHT22;3723;52.220;8.792;2023-07-20T03:35:51;13.50;99.90
7366;DHT22;3723;52.220;8.792;2023-07-20T03:38:18;13.50;99.90
7366;DHT22;3723;52.220;8.792;2023-07-20T03:40:51;13.60;99.90
7366;DHT22;3723;52.220;8.792;2023-07-20T03:43:19;13.60;99.90
7366;DHT22;3723;52.220;8.792;2023-07-20T03:45:46;13.60;99.90
7366;DHT22;3723;52.220;8.792;2023-07-20T03:48:13;13.70;99.90
7366;DHT22;3723;52.220;8.792;2023-07-20T03:50:41;13.70;99.90
7366;DHT22;3723;52.220;8.792;2023-07-20T03:53:09;13.70;99.90
7366;DHT22;3723;52.220;8.792;2023-07-20T03:55:35;13.70;99.90
7366;DHT22;3723;52.220;8.792;2023-07-20T03:58:02;13.70;99.90
7366;DHT22;3723;52.220;8.792;2023-07-20T04:00:29;13.60;99.90
7366;DHT22;3723;52.220;8.792;2023-07-20T04:02:56;13.60;99.90
7366;DHT22;3723;52.220;8.792;2023-07-20T04:05:23;13.60;99.90
7366;DHT22;3723;52.220;8.792;2023-07-20T04:07:52;13.60;99.90
7366;DHT22;3723;52.220;8.792;2023-07-20T04:10:19;13.60;99.90
7366;DHT22;3723;52.220;8.792;2023-07-20T04:12:46;13.50;99.90
7366;DHT22;3723;52.220;8.792;2023-07-20T04:15:13;13.50;99.90
7366;DHT22;3723;52.220;8.792;2023-07-20T04:17:41;13.50;99.90
7366;DHT22;3723;52.220;8.792;2023-07-20T04:20:08;13.50;99.90
7366;DHT22;3723;52.220;8.792;2023-07-20T04:22:41;13.40;99.90
7366;DHT22;3723;52.220;8.792;2023-07-20T04:25:09;13.40;99.90
7366;DHT22;3723;52.220;8.792;2023-07-20T04:27:36;13.40;99.90
7366;DHT22;3723;52.220;8.792;2023-07-20T04:30:04;13.50;99.90
7366;DHT22;3723;52.220;8.792;2023-07-20T04:32:53;13.40;99.90
7366;DHT22;3723;52.220;8.792;2023-07-20T04:35:45;13.50;99.90
7366;DHT22;3723;52.220;8.792;2023-07-20T04:38:13;13.50;99.90
7366;DHT22;3723;52.220;8.792;2023-07-20T04:40:43;13.50;99.90
7366;DHT22;3723;52.220;8.792;2023-07-20T04:43:09;13.60;99.90
7366;DHT22;3723;52.220;8.792;2023-07-20T04:45:36;13.60;99.90
7366;DHT22;3723;52.220;8.792;2023-07-20T04:48:05;13.70;99.90
7366;DHT22;3723;52.220;8.792;2023-07-20T04:50:32;13.70;99.90
7366;DHT22;3723;52.220;8.792;2023-07-20T04:52:59;13.70;99.90
7366;DHT22;3723;52.220;8.792;2023-07-20T04:55:27;13.80;99.90
7366;DHT22;3723;52.220;8.792;2023-07-20T04:57:55;13.80;99.90
7366;DHT22;3723;52.220;8.792;2023-07-20T05:00:22;13.80;99.90
7366;DHT22;3723;52.220;8.792;2023-07-20T05:02:49;13.80;99.90
7366;DHT22;3723;52.220;8.792;2023-07-20T05:05:16;13.80;99.90
7366;DHT22;3723;52.220;8.792;2023-07-20T05:07:43;13.70;99.90
7366;DHT22;3723;52.220;8.792;2023-07-20T05:10:10;13.70;99.90
7366;DHT22;3723;52.220;8.792;2023-07-20T05:12:37;13.80;99.90
7366;DHT22;3723;52.220;8.792;2023-07-20T05:15:06;13.80;99.90
7366;DHT22;3723;52.220;8.792;2023-07-20T05:17:33;13.90;99.90
7366;DHT22;3723;52.220;8.792;2023-07-20T05:20:00;14.00;99.90
7366;DHT22;3723;52.220;8.792;2023-07-20T05:22:27;14.20;99.90
7366;DHT22;3723;52.220;8.792;2023-07-20T05:24:54;14.30;99.90
7366;DHT22;3723;52.220;8.792;2023-07-20T05:27:21;14.50;99.90
7366;DHT22;3723;52.220;8.792;2023-07-20T05:29:48;14.60;99.90
7366;DHT22;3723;52.220;8.792;2023-07-20T05:32:16;14.80;99.90
7366;DHT22;3723;52.220;8.792;2023-07-20T05:34:43;14.90;99.90
7366;DHT22;3723;52.220;8.792;2023-07-20T05:37:10;15.00;99.90
7366;DHT22;3723;52.220;8.792;2023-07-20T05:39:36;15.10;99.90
7366;DHT22;3723;52.220;8.792;2023-07-20T05:42:03;15.20;99.90
7366;DHT22;3723;52.220;8.792;2023-07-20T05:44:30;15.30;99.90
7366;DHT22;3723;52.220;8.792;2023-07-20T05:46:57;15.40;99.90
7366;DHT22;3723;52.220;8.792;2023-07-20T05:49:25;15.40;99.90
7366;DHT22;3723;52.220;8.792;2023-07-20T05:51:52;15.50;99.90
7366;DHT22;3723;52.220;8.792;2023-07-20T05:54:19;15.60;99.90
7366;DHT22;3723;52.220;8.792;2023-07-20T05:56:46;15.60;99.90
7366;DHT22;3723;52.220;8.792;2023-07-20T05:59:13;15.80;99.90
7366;DHT22;3723;52.220;8.792;2023-07-20T06:01:40;16.00;99.90
7366;DHT22;3723;52.220;8.792;2023-07-20T06:04:07;15.90;99.90
7366;DHT22;3723;52.220;8.792;2023-07-20T06:06:35;15.80;99.90
7366;DHT22;3723;52.220;8.792;2023-07-20T06:09:02;15.60;99.90
7366;DHT22;3723;52.220;8.792;2023-07-20T06:11:29;15.70;99.90
7366;DHT22;3723;52.220;8.792;2023-07-20T06:13:57;16.50;99.90
7366;DHT22;3723;52.220;8.792;2023-07-20T06:16:24;17.50;99.90
7366;DHT22;3723;52.220;8.792;2023-07-20T06:18:50;18.60;99.90
7366;DHT22;3723;52.220;8.792;2023-07-20T06:21:17;19.50;99.90
7366;DHT22;3723;52.220;8.792;2023-07-20T06:23:45;20.50;99.90
7366;DHT22;3723;52.220;8.792;2023-07-20T06:26:12;21.50;99.90
7366;DHT22;3723;52.220;8.792;2023-07-20T06:28:39;22.10;99.90
7366;DHT22;3723;52.220;8.792;2023-07-20T06:31:06;22.30;99.90
7366;DHT22;3723;52.220;8.792;2023-07-20T06:33:34;22.80;99.90
7366;DHT22;3723;52.220;8.792;2023-07-20T06:36:01;23.20;99.90
7366;DHT22;3723;52.220;8.792;2023-07-20T06:38:28;23.50;99.90
7366;DHT22;3723;52.220;8.792;2023-07-20T06:40:56;23.20;99.90
7366;DHT22;3723;52.220;8.792;2023-07-20T06:43:23;23.20;99.90
7366;DHT22;3723;52.220;8.792;2023-07-20T06:45:53;22.90;99.90
7366;DHT22;3723;52.220;8.792;2023-07-20T06:48:20;22.20;99.90
7366;DHT22;3723;52.220;8.792;2023-07-20T06:50:47;21.80;99.90
7366;DHT22;3723;52.220;8.792;2023-07-20T06:53:14;22.30;99.90
7366;DHT22;3723;52.220;8.792;2023-07-20T06:55:42;22.70;99.90
7366;DHT22;3723;52.220;8.792;2023-07-20T06:58:10;23.10;99.90
7366;DHT22;3723;52.220;8.792;2023-07-20T07:00:37;24.30;99.90
7366;DHT22;3723;52.220;8.792;2023-07-20T07:03:04;24.50;99.90
7366;DHT22;3723;52.220;8.792;2023-07-20T07:05:31;24.30;99.90
7366;DHT22;3723;52.220;8.792;2023-07-20T07:07:58;23.50;99.90
7366;DHT22;3723;52.220;8.792;2023-07-20T07:10:24;22.70;99.90
7366;DHT22;3723;52.220;8.792;2023-07-20T07:12:51;22.10;99.90
7366;DHT22;3723;52.220;8.792;2023-07-20T07:15:19;22.40;99.90
7366;DHT22;3723;52.220;8.792;2023-07-20T07:17:46;22.70;99.90
7366;DHT22;3723;52.220;8.792;2023-07-20T07:20:13;23.20;99.90
7366;DHT22;3723;52.220;8.792;2023-07-20T07:22:40;24.10;99.90
7366;DHT22;3723;52.220;8.792;2023-07-20T07:25:11;24.30;99.90
7366;DHT22;3723;52.220;8.792;2023-07-20T07:27:38;24.40;99.90
7366;DHT22;3723;52.220;8.792;2023-07-20T07:30:06;24.60;99.90
7366;DHT22;3723;52.220;8.792;2023-07-20T07:32:34;25.00;99.90
7366;DHT22;3723;52.220;8.792;2023-07-20T07:35:01;24.80;99.90
7366;DHT22;3723;52.220;8.792;2023-07-20T07:37:28;24.60;99.90
7366;DHT22;3723;52.220;8.792;2023-07-20T07:39:54;24.90;99.90
7366;DHT22;3723;52.220;8.792;2023-07-20T07:42:22;24.70;99.90
7366;DHT22;3723;52.220;8.792;2023-07-20T07:44:49;24.30;99.90
7366;DHT22;3723;52.220;8.792;2023-07-20T07:47:16;25.00;99.90
7366;DHT22;3723;52.220;8.792;2023-07-20T07:49:44;26.10;99.90
7366;DHT22;3723;52.220;8.792;2023-07-20T07:52:11;26.80;99.90
7366;DHT22;3723;52.220;8.792;2023-07-20T07:54:45;26.40;99.90
7366;DHT22;3723;52.220;8.792;2023-07-20T07:57:12;25.20;99.90
7366;DHT22;3723;52.220;8.792;2023-07-20T07:59:40;23.90;99.90
7366;DHT22;3723;52.220;8.792;2023-07-20T08:02:06;23.10;99.90
7366;DHT22;3723;52.220;8.792;2023-07-20T08:04:33;22.90;99.90
7366;DHT22;3723;52.220;8.792;2023-07-20T08:07:04;23.90;99.90
7366;DHT22;3723;52.220;8.792;2023-07-20T08:09:31;25.10;99.90
7366;DHT22;3723;52.220;8.792;2023-07-20T08:11:58;25.50;99.90
7366;DHT22;3723;52.220;8.792;2023-07-20T08:14:25;25.60;99.90
7366;DHT22;3723;52.220;8.792;2023-07-20T08:16:52;24.80;99.90
7366;DHT22;3723;52.220;8.792;2023-07-20T08:19:20;23.80;99.90
7366;DHT22;3723;52.220;8.792;2023-07-20T08:21:47;22.80;99.90
7366;DHT22;3723;52.220;8.792;2023-07-20T08:24:15;22.90;99.90
7366;DHT22;3723;52.220;8.792;2023-07-20T08:26:42;23.60;99.90
7366;DHT22;3723;52.220;8.792;2023-07-20T08:29:09;24.40;99.90
7366;DHT22;3723;52.220;8.792;2023-07-20T08:31:35;25.40;99.90
7366;DHT22;3723;52.220;8.792;2023-07-20T08:34:02;26.50;99.90
7366;DHT22;3723;52.220;8.792;2023-07-20T08:36:30;27.00;99.90
7366;DHT22;3723;52.220;8.792;2023-07-20T08:38:58;27.20;99.90
7366;DHT22;3723;52.220;8.792;2023-07-20T08:41:27;27.50;99.90
7366;DHT22;3723;52.220;8.792;2023-07-20T08:43:54;27.60;99.90
7366;DHT22;3723;52.220;8.792;2023-07-20T08:46:23;27.90;99.90
7366;DHT22;3723;52.220;8.792;2023-07-20T08:48:52;28.40;99.90
7366;DHT22;3723;52.220;8.792;2023-07-20T08:51:20;28.60;99.90
7366;DHT22;3723;52.220;8.792;2023-07-20T08:53:48;27.50;99.90
7366;DHT22;3723;52.220;8.792;2023-07-20T08:56:18;26.80;99.90
7366;DHT22;3723;52.220;8.792;2023-07-20T08:58:47;27.00;99.90
7366;DHT22;3723;52.220;8.792;2023-07-20T09:01:15;27.60;99.90
7366;DHT22;3723;52.220;8.792;2023-07-20T09:03:44;28.20;99.90
7366;DHT22;3723;52.220;8.792;2023-07-20T09:06:12;28.70;99.90
7366;DHT22;3723;52.220;8.792;2023-07-20T09:08:38;29.30;99.90
7366;DHT22;3723;52.220;8.792;2023-07-20T09:11:06;29.90;99.90
7366;DHT22;3723;52.220;8.792;2023-07-20T09:13:33;29.60;99.90
7366;DHT22;3723;52.220;8.792;2023-07-20T09:16:01;28.20;99.90
7366;DHT22;3723;52.220;8.792;2023-07-20T09:18:30;27.10;99.90
7366;DHT22;3723;52.220;8.792;2023-07-20T09:21:02;27.10;99.90
7366;DHT22;3723;52.220;8.792;2023-07-20T09:23:33;27.40;99.90
7366;DHT22;3723;52.220;8.792;2023-07-20T09:26:00;28.00;99.90
7366;DHT22;3723;52.220;8.792;2023-07-20T09:28:27;28.40;99.90
7366;DHT22;3723;52.220;8.792;2023-07-20T09:30:55;28.60;99.90
7366;DHT22;3723;52.220;8.792;2023-07-20T09:33:25;29.10;99.90
7366;DHT22;3723;52.220;8.792;2023-07-20T09:35:53;29.10;99.90
7366;DHT22;3723;52.220;8.792;2023-07-20T09:38:20;29.40;99.90
7366;DHT22;3723;52.220;8.792;2023-07-20T09:40:48;29.20;99.90
7366;DHT22;3723;52.220;8.792;2023-07-20T09:43:16;29.10;99.90
7366;DHT22;3723;52.220;8.792;2023-07-20T09:45:43;29.10;99.90
7366;DHT22;3723;52.220;8.792;2023-07-20T09:48:14;28.30;99.90
7366;DHT22;3723;52.220;8.792;2023-07-20T09:50:43;27.80;99.90
7366;DHT22;3723;52.220;8.792;2023-07-20T09:53:15;27.50;99.90
7366;DHT22;3723;52.220;8.792;2023-07-20T09:55:44;28.10;99.90
7366;DHT22;3723;52.220;8.792;2023-07-20T09:58:12;28.60;99.90
7366;DHT22;3723;52.220;8.792;2023-07-20T10:00:40;28.80;99.90
7366;DHT22;3723;52.220;8.792;2023-07-20T10:03:10;29.10;99.90
7366;DHT22;3723;52.220;8.792;2023-07-20T10:05:46;29.20;99.90
7366;DHT22;3723;52.220;8.792;2023-07-20T10:08:16;29.30;99.90
7366;DHT22;3723;52.220;8.792;2023-07-20T10:10:46;28.90;99.90
7366;DHT22;3723;52.220;8.792;2023-07-20T10:13:18;29.10;99.90
7366;DHT22;3723;52.220;8.792;2023-07-20T10:15:50;29.80;99.90
7366;DHT22;3723;52.220;8.792;2023-07-20T10:18:41;29.50;99.90
7366;DHT22;3723;52.220;8.792;2023-07-20T10:21:12;29.50;99.90
7366;DHT22;3723;52.220;8.792;2023-07-20T10:23:41;30.00;99.90
7366;DHT22;3723;52.220;8.792;2023-07-20T10:26:12;30.30;99.90
7366;DHT22;3723;52.220;8.792;2023-07-20T10:28:41;29.70;99.90
7366;DHT22;3723;52.220;8.792;2023-07-20T10:31:16;29.60;99.90
7366;DHT22;3723;52.220;8.792;2023-07-20T10:34:02;30.20;99.90
7366;DHT22;3723;52.220;8.792;2023-07-20T10:36:30;30.40;99.90
7366;DHT22;3723;52.220;8.792;2023-07-20T10:38:58;29.70;99.90
7366;DHT22;3723;52.220;8.792;2023-07-20T10:41:33;28.30;99.90
7366;DHT22;3723;52.220;8.792;2023-07-20T10:44:02;27.00;99.90
7366;DHT22;3723;52.220;8.792;2023-07-20T10:46:43;25.70;99.90
7366;DHT22;3723;52.220;8.792;2023-07-20T10:49:13;25.60;99.90
7366;DHT22;3723;52.220;8.792;2023-07-20T10:51:43;26.50;99.90
7366;DHT22;3723;52.220;8.792;2023-07-20T10:54:49;27.50;99.90
7366;DHT22;3723;52.220;8.792;2023-07-20T10:57:30;28.40;99.90
7366;DHT22;3723;52.220;8.792;2023-07-20T11:00:09;29.20;99.90
7366;DHT22;3723;52.220;8.792;2023-07-20T11:02:44;29.90;99.90
7366;DHT22;3723;52.220;8.792;2023-07-20T11:05:34;30.00;99.90
7366;DHT22;3723;52.220;8.792;2023-07-20T11:08:06;29.50;99.90
7366;DHT22;3723;52.220;8.792;2023-07-20T11:10:36;28.90;99.90
7366;DHT22;3723;52.220;8.792;2023-07-20T11:13:23;28.80;99.90
7366;DHT22;3723;52.220;8.792;2023-07-20T11:16:04;29.10;99.90
7366;DHT22;3723;52.220;8.792;2023-07-20T11:18:34;29.00;99.90
7366;DHT22;3723;52.220;8.792;2023-07-20T11:21:08;28.90;99.90
7366;DHT22;3723;52.220;8.792;2023-07-20T11:23:38;28.40;99.90
7366;DHT22;3723;52.220;8.792;2023-07-20T11:26:05;27.50;99.90
7366;DHT22;3723;52.220;8.792;2023-07-20T11:28:34;26.70;99.90
7366;DHT22;3723;52.220;8.792;2023-07-20T11:31:23;26.10;99.90
7366;DHT22;3723;52.220;8.792;2023-07-20T11:34:04;25.30;98.90
7366;DHT22;3723;52.220;8.792;2023-07-20T11:36:49;24.80;99.30
7366;DHT22;3723;52.220;8.792;2023-07-20T11:39:21;24.20;95.60
7366;DHT22;3723;52.220;8.792;2023-07-20T11:41:54;23.80;96.50
7366;DHT22;3723;52.220;8.792;2023-07-20T11:44:22;23.60;96.20
7366;DHT22;3723;52.220;8.792;2023-07-20T11:46:59;23.50;96.90
7366;DHT22;3723;52.220;8.792;2023-07-20T11:49:27;23.80;99.80
7366;DHT22;3723;52.220;8.792;2023-07-20T11:51:57;24.50;99.90
7366;DHT22;3723;52.220;8.792;2023-07-20T11:54:27;25.40;99.90
7366;DHT22;3723;52.220;8.792;2023-07-20T11:57:00;26.00;99.90
7366;DHT22;3723;52.220;8.792;2023-07-20T11:59:27;25.70;99.90
7366;DHT22;3723;52.220;8.792;2023-07-20T12:01:55;25.30;99.90
7366;DHT22;3723;52.220;8.792;2023-07-20T12:04:25;24.90;99.90
7366;DHT22;3723;52.220;8.792;2023-07-20T12:06:53;25.40;99.90
7366;DHT22;3723;52.220;8.792;2023-07-20T12:09:20;26.20;99.90
7366;DHT22;3723;52.220;8.792;2023-07-20T12:25:40;27.10;99.90
7366;DHT22;3723;52.220;8.792;2023-07-20T12:28:09;26.90;99.90
7366;DHT22;3723;52.220;8.792;2023-07-20T12:30:36;26.90;99.90
7366;DHT22;3723;52.220;8.792;2023-07-20T12:33:03;26.80;99.90
7366;DHT22;3723;52.220;8.792;2023-07-20T12:35:33;26.40;99.90
7366;DHT22;3723;52.220;8.792;2023-07-20T12:38:03;26.00;99.90
7366;DHT22;3723;52.220;8.792;2023-07-20T12:40:32;26.30;99.90
7366;DHT22;3723;52.220;8.792;2023-07-20T12:43:29;26.50;99.90
7366;DHT22;3723;52.220;8.792;2023-07-20T12:45:58;27.50;99.90
7366;DHT22;3723;52.220;8.792;2023-07-20T12:48:34;28.60;99.90
7366;DHT22;3723;52.220;8.792;2023-07-20T12:51:16;29.30;99.90
7366;DHT22;3723;52.220;8.792;2023-07-20T12:53:44;29.80;99.90
7366;DHT22;3723;52.220;8.792;2023-07-20T12:56:28;29.80;99.90
7366;DHT22;3723;52.220;8.792;2023-07-20T12:58:57;29.40;99.90
7366;DHT22;3723;52.220;8.792;2023-07-20T13:01:23;29.40;99.90
7366;DHT22;3723;52.220;8.792;2023-07-20T13:03:51;29.90;99.90
7366;DHT22;3723;52.220;8.792;2023-07-20T13:06:21;29.70;99.90
7366;DHT22;3723;52.220;8.792;2023-07-20T13:08:51;30.00;99.90
7366;DHT22;3723;52.220;8.792;2023-07-20T13:11:23;30.50;99.90
7366;DHT22;3723;52.220;8.792;2023-07-20T13:13:50;31.00;99.90
7366;DHT22;3723;52.220;8.792;2023-07-20T13:16:19;31.00;99.90
7366;DHT22;3723;52.220;8.792;2023-07-20T13:18:50;31.00;99.90
7366;DHT22;3723;52.220;8.792;2023-07-20T13:21:19;30.60;99.90
7366;DHT22;3723;52.220;8.792;2023-07-20T13:23:48;30.40;99.90
7366;DHT22;3723;52.220;8.792;2023-07-20T13:26:16;29.40;99.90
7366;DHT22;3723;52.220;8.792;2023-07-20T13:28:43;28.30;99.90
7366;DHT22;3723;52.220;8.792;2023-07-20T13:31:10;27.40;99.30
7366;DHT22;3723;52.220;8.792;2023-07-20T13:33:38;27.40;99.80
7366;DHT22;3723;52.220;8.792;2023-07-20T13:36:05;27.80;99.90
7366;DHT22;3723;52.220;8.792;2023-07-20T13:38:32;27.90;99.90
7366;DHT22;3723;52.220;8.792;2023-07-20T13:41:00;27.50;99.90
7366;DHT22;3723;52.220;8.792;2023-07-20T13:43:27;27.10;99.90
7366;DHT22;3723;52.220;8.792;2023-07-20T13:45:54;26.50;98.20
7366;DHT22;3723;52.220;8.792;2023-07-20T14:10:35;22.00;75.40
7366;DHT22;3723;52.220;8.792;2023-07-20T14:13:15;21.70;84.50
7366;DHT22;3723;52.220;8.792;2023-07-20T14:15:42;21.50;89.90
7366;DHT22;3723;52.220;8.792;2023-07-20T14:18:09;21.30;84.90
7366;DHT22;3723;52.220;8.792;2023-07-20T14:20:36;21.20;89.20
7366;DHT22;3723;52.220;8.792;2023-07-20T14:23:03;21.10;87.90
7366;DHT22;3723;52.220;8.792;2023-07-20T14:25:32;21.00;89.40
7366;DHT22;3723;52.220;8.792;2023-07-20T14:27:59;20.90;91.40
7366;DHT22;3723;52.220;8.792;2023-07-20T14:30:26;20.90;93.50
7366;DHT22;3723;52.220;8.792;2023-07-20T14:32:53;20.90;92.90
7366;DHT22;3723;52.220;8.792;2023-07-20T14:35:20;20.80;92.80
7366;DHT22;3723;52.220;8.792;2023-07-20T14:37:47;20.90;95.00
7366;DHT22;3723;52.220;8.792;2023-07-20T14:40:16;21.10;95.60
7366;DHT22;3723;52.220;8.792;2023-07-20T14:42:44;21.60;97.80
7366;DHT22;3723;52.220;8.792;2023-07-20T14:45:11;22.80;99.90
7366;DHT22;3723;52.220;8.792;2023-07-20T14:47:38;24.20;99.90
7366;DHT22;3723;52.220;8.792;2023-07-20T14:50:06;25.00;99.90
7366;DHT22;3723;52.220;8.792;2023-07-20T14:52:38;25.60;99.90
7366;DHT22;3723;52.220;8.792;2023-07-20T14:55:06;26.50;99.90
7366;DHT22;3723;52.220;8.792;2023-07-20T14:57:33;27.00;99.90
7366;DHT22;3723;52.220;8.792;2023-07-20T15:00:01;27.20;99.90
7366;DHT22;3723;52.220;8.792;2023-07-20T15:02:34;27.50;99.90
7366;DHT22;3723;52.220;8.792;2023-07-20T15:05:20;28.00;99.90
7366;DHT22;3723;52.220;8.792;2023-07-20T15:07:47;27.80;99.90
7366;DHT22;3723;52.220;8.792;2023-07-20T15:10:14;27.60;99.90
7366;DHT22;3723;52.220;8.792;2023-07-20T15:12:45;27.40;99.90
7366;DHT22;3723;52.220;8.792;2023-07-20T15:15:15;27.20;99.90
7366;DHT22;3723;52.220;8.792;2023-07-20T15:17:43;26.80;99.90
7366;DHT22;3723;52.220;8.792;2023-07-20T15:20:22;26.30;99.90
7366;DHT22;3723;52.220;8.792;2023-07-20T15:22:50;25.90;99.90
7366;DHT22;3723;52.220;8.792;2023-07-20T15:25:18;25.90;99.90
7366;DHT22;3723;52.220;8.792;2023-07-20T15:27:51;25.70;99.90
7366;DHT22;3723;52.220;8.792;2023-07-20T15:30:27;25.60;99.90
7366;DHT22;3723;52.220;8.792;2023-07-20T15:32:54;25.10;99.00
7366;DHT22;3723;52.220;8.792;2023-07-20T15:35:22;24.80;98.70
7366;DHT22;3723;52.220;8.792;2023-07-20T15:37:49;24.40;96.90
7366;DHT22;3723;52.220;8.792;2023-07-20T15:40:16;24.20;97.20
7366;DHT22;3723;52.220;8.792;2023-07-20T15:42:43;24.20;97.30
7366;DHT22;3723;52.220;8.792;2023-07-20T15:45:10;23.90;96.40
7366;DHT22;3723;52.220;8.792;2023-07-20T15:47:41;23.60;96.00
7366;DHT22;3723;52.220;8.792;2023-07-20T15:50:09;23.20;95.70
7366;DHT22;3723;52.220;8.792;2023-07-20T15:52:36;22.90;93.50
7366;DHT22;3723;52.220;8.792;2023-07-20T15:55:06;22.70;95.00
7366;DHT22;3723;52.220;8.792;2023-07-20T15:57:32;23.00;97.40
7366;DHT22;3723;52.220;8.792;2023-07-20T16:00:00;23.70;99.90
7366;DHT22;3723;52.220;8.792;2023-07-20T16:02:27;24.90;99.90
7366;DHT22;3723;52.220;8.792;2023-07-20T16:04:56;25.70;99.90
7366;DHT22;3723;52.220;8.792;2023-07-20T16:07:23;25.80;99.90
7366;DHT22;3723;52.220;8.792;2023-07-20T16:09:50;25.60;99.90
7366;DHT22;3723;52.220;8.792;2023-07-20T16:12:25;25.50;99.90
7366;DHT22;3723;52.220;8.792;2023-07-20T16:14:53;25.30;99.90
7366;DHT22;3723;52.220;8.792;2023-07-20T16:17:20;25.00;99.90
7366;DHT22;3723;52.220;8.792;2023-07-20T16:19:47;24.70;99.90
7366;DHT22;3723;52.220;8.792;2023-07-20T16:22:15;24.50;99.40
7366;DHT22;3723;52.220;8.792;2023-07-20T16:24:42;24.20;98.50
7366;DHT22;3723;52.220;8.792;2023-07-20T16:27:09;23.90;99.80
7366;DHT22;3723;52.220;8.792;2023-07-20T16:29:36;23.70;98.50
7366;DHT22;3723;52.220;8.792;2023-07-20T16:32:03;23.60;99.60
7366;DHT22;3723;52.220;8.792;2023-07-20T16:34:32;23.60;99.20
7366;DHT22;3723;52.220;8.792;2023-07-20T16:36:59;24.00;99.60
7366;DHT22;3723;52.220;8.792;2023-07-20T16:39:27;24.60;99.90
7366;DHT22;3723;52.220;8.792;2023-07-20T16:41:54;25.00;99.90
7366;DHT22;3723;52.220;8.792;2023-07-20T16:44:21;25.30;99.90
7366;DHT22;3723;52.220;8.792;2023-07-20T16:46:50;25.30;99.90
7366;DHT22;3723;52.220;8.792;2023-07-20T16:49:16;25.40;99.90